weather.gov     
National Weather Service

Terminal Aerodrome Forecast
NWS Homepage
This page is being discontinued on March 12, 2014.
The same data is available at this site. Please update your bookmarks.
Thank you, and we apologize for the inconvenience.
Please send an email to SR-SRH.Webmaster@noaa.gov with any concerns.


Current Version
Previous Version:    01  02  03  04  05  06  07  08  09  10  11  12  13  14  15  16  17  18  19  20  21  22  23  24  25  26  27  28  29  30  
   31  32  33  34  35  36  37  38  39  40  41  42  43  
[Printable]
244
FTUS42 KMLB 300500
TAFLEE
TAF
KLEE 300529Z 3006/0106 23005KT P6SM SCT005 OVC015
      TEMPO 3006/3010 BKN005
     FM301000 23005KT 5SM BR OVC005
      TEMPO 3010/3012 2SM BR OVC003
     FM301300 27005KT P6SM SCT010 BKN020
     FM301600 29006KT P6SM VCSH SCT025 OVC040
     FM301900 29007KT P6SM BKN030 OVC040
      TEMPO 3019/3022 2SM +SHRA BKN025
     FM010000 30004KT P6SM VCSH SCT020 BKN040
     FM010300 31003KT P6SM SCT020 SCT100 BKN250=


U.S. Dept. of Commerce
NOAA National Weather Service
1325 East West Highway
Silver Spring, MD 20910
E-mail: w-nws.webmaster@noaa.gov
Page last modified: May 16, 2007
NATIONAL WEATHER SERVICE: for Safety, for Work, for Fun - FOR LIFE